Flight Track Log - Related Links

Times and Time Zones

All times are in EST time to prevent confusion due to time zone crossing. See the PDT4155 flight status page for this flight to view local times or setup timezone preferences in your user account.

Time Position Orientation Groundspeed Altitude Reporting Facility
EST Latitude Longitude Course Direction KTS MPH feet Rate Location/Type
Mon 07:30:00 AM 41.9654 -75.9002 180° South  Level Estimated
Mon 07:31:00 AM 41.9014 -75.8794 154° Southeast  Level Estimated
Mon 07:32:00 AM 41.8374 -75.8586 160° South  Level Estimated
Mon 07:33:00 AM 41.7734 -75.8379 159° South  Level Estimated
Mon 07:34:00 AM 41.7080 -75.8288 174° South  Level FlightAware Approximate
Mon 07:35:00 AM 41.6440 -75.8078 153° Southeast  Level Estimated
Mon 07:36:00 AM 41.5801 -75.7868 161° South  Level Estimated
Mon 07:37:00 AM 41.5162 -75.7656 166° South  Level FlightAware Approximate
Mon 07:38:00 AM 41.4523 -75.7445 166° South  Level FlightAware Approximate
Mon 07:39:00 AM 41.3884 -75.7236 162° South  Level Estimated
Mon 07:40:00 AM 41.3255 -75.6981 163° South  Level FlightAware Approximate
Mon 07:41:00 AM 41.2625 -75.6725 163° South  Level FlightAware Approximate
Mon 07:42:00 AM 41.1995 -75.6470 163° South  Level FlightAware Approximate
Mon 07:43:00 AM 41.1365 -75.6216 163° South  Level FlightAware Approximate
Mon 07:44:00 AM 41.0724 -75.6020 163° South  Level Estimated
Mon 07:45:00 AM 41.0098 -75.5751 162° South  Level FlightAware Approximate
Mon 07:46:00 AM 40.9472 -75.5483 162° South  Level FlightAware Approximate
Mon 07:47:00 AM 40.8845 -75.5215 162° South  Level FlightAware Approximate
Mon 07:48:00 AM 40.8201 -75.5034 190° South  Level Estimated
Mon 07:49:00 AM 40.7543 -75.5027 180° South  Level FlightAware Approximate
Mon 07:50:00 AM 40.6885 -75.5020 180° South  Level FlightAware Approximate
Mon 07:51:00 AM 40.6246 -75.4813 187° South  Level Estimated
Mon 07:52:00 AM 40.5592 -75.4916 187° South  Level FlightAware Approximate
Mon 07:53:00 AM 40.4959 -75.4683 190° South  Level Estimated
Mon 07:53:30 AM 40.7000 -75.4500 143° Southeast 262 302 7,500  Level Philadelphia TRACON
Mon 07:54:00 AM 40.4321 -75.4895 194° South  Level FlightAware Approximate
Mon 07:54:54 AM 40.6167 -75.4833 197° South 251 289 6,500  Level Philadelphia TRACON
Mon 07:55:00 AM 40.3698 -75.4616 180° South  Level Estimated
Mon 07:55:54 AM 40.5333 -75.5000 189° South 258 297 5,800  Level Philadelphia TRACON
Mon 07:56:00 AM 40.3074 -75.4338 143° Southeast  Level Estimated
Mon 07:57:00 AM 40.2451 -75.4060 143° Southeast  Level Estimated
Mon 07:57:00 AM 40.4667 -75.5000 180° South 245 282 5,100  Level Philadelphia TRACON
Mon 07:57:42 AM 40.4333 -75.4500 131° Southeast 228 262 5,100 -63 Level Philadelphia TRACON
Mon 07:58:00 AM 40.1828 -75.3783 143° Southeast  Level Estimated
Mon 07:58:36 AM 40.3833 -75.4167 153° Southeast 234 269 5,000  Level Philadelphia TRACON
Mon 07:59:42 AM 40.3167 -75.3500 143° Southeast 244 281 5,000 -48 Level Philadelphia TRACON
Mon 08:00:42 AM 40.2667 -75.3167 153° Southeast 242 278 4,900 -400 Descending Philadelphia TRACON
Mon 08:01:42 AM 40.2000 -75.2667 150° Southeast 249 287 4,200 -450 Descending Philadelphia TRACON
Mon 08:02:42 AM 40.1333 -75.2333 159° South 252 290 4,000 -95 Descending Philadelphia TRACON
Mon 08:03:48 AM 40.0667 -75.2000 159° South 239 275 4,000  Level Philadelphia TRACON
Mon 08:04:49 AM 40.0000 -75.1667 159° South 240 276 4,000  Level Philadelphia TRACON
Mon 08:05:43 AM 39.9500 -75.1500 166° South 222 255 4,000  Level Philadelphia TRACON
Mon 08:06:36 AM 39.9000 -75.1333 166° South 216 249 4,000  Level Philadelphia TRACON
Mon 08:07:31 AM 39.8500 -75.1000 153° Southeast 211 243 4,000  Level Philadelphia TRACON
Mon 08:08:31 AM 39.7833 -75.0833 169° South 226 260 4,000  Level Philadelphia TRACON
Mon 08:09:25 AM 39.7333 -75.0500 153° Southeast 234 269 4,000 -550 Level Philadelphia TRACON
Mon 08:10:31 AM 39.6833 -75.0667 194° South 196 226 2,900 -818 Descending Philadelphia TRACON
Mon 08:11:37 AM 39.6833 -75.1333 270° West 175 201 2,200 -571 Descending Philadelphia TRACON
Mon 08:12:37 AM 39.7333 -75.1500 346° North 173 199 1,700 -300 Descending Philadelphia TRACON
Mon 08:13:37 AM 39.7667 -75.1833 322° Northwest 158 182 1,600 -200 Descending Philadelphia TRACON
Mon 08:14:37 AM 39.8167 -75.2000 346° North 141 162 1,300 -450 Descending Philadelphia TRACON
Mon 08:15:37 AM 39.8333 -75.2167 322° Northwest 98 113 700 -571 Descending Philadelphia TRACON
Mon 08:16:43 AM 39.8667 -75.2333 339° North 95 109 100 -545 Descending Philadelphia TRACON

Login

Don't have an account? Register now (free) for customized features, flight alerts, and more!